createdAt,value
2022-12-25T00:00:29.574Z,43.27
2022-12-25T00:02:57.256Z,43.18
2022-12-25T00:05:31.329Z,43.23
2022-12-25T00:08:04.703Z,43.20
2022-12-25T00:10:45.218Z,43.29
2022-12-25T00:13:15.413Z,43.20
2022-12-25T00:15:51.461Z,43.28
2022-12-25T00:18:25.594Z,43.32
2022-12-25T00:21:06.531Z,43.20
2022-12-25T00:23:35.993Z,43.19
2022-12-25T00:26:11.903Z,43.22
2022-12-25T00:28:40.455Z,43.16
2022-12-25T00:31:29.353Z,43.25
2022-12-25T00:33:57.297Z,43.16
2022-12-25T00:36:28.339Z,43.17
2022-12-25T00:38:55.898Z,43.09
2022-12-25T00:41:29.699Z,43.21
2022-12-25T00:44:00.298Z,43.10
2022-12-25T00:46:27.761Z,43.13
2022-12-25T00:49:04.157Z,43.08
2022-12-25T00:51:32.191Z,43.21
2022-12-25T00:54:06.483Z,43.16
2022-12-25T00:56:34.177Z,43.22
2022-12-25T00:59:01.991Z,43.21
2022-12-25T01:01:32.890Z,43.17
2022-12-25T01:04:03.829Z,43.18
2022-12-25T01:06:38.515Z,43.25
2022-12-25T01:09:08.636Z,43.27
2022-12-25T01:11:39.467Z,43.28
2022-12-25T01:14:10.719Z,43.28
2022-12-25T01:16:42.019Z,43.20
2022-12-25T01:19:09.935Z,43.16
2022-12-25T01:21:40.208Z,43.15
2022-12-25T01:24:11.091Z,43.18
2022-12-25T01:26:44.008Z,43.17
2022-12-25T01:29:14.624Z,43.10
2022-12-25T01:31:45.417Z,43.15
2022-12-25T01:34:16.472Z,43.12
2022-12-25T01:36:46.442Z,43.16
2022-12-25T01:39:23.204Z,43.08
2022-12-25T01:41:51.062Z,43.14
2022-12-25T01:44:39.892Z,43.28
2022-12-25T01:47:07.934Z,43.18
2022-12-25T01:49:42.154Z,43.12
2022-12-25T01:52:25.186Z,43.28
2022-12-25T01:55:05.275Z,43.10
2022-12-25T01:57:38.256Z,43.21
2022-12-25T02:00:11.429Z,43.05
2022-12-25T02:02:48.697Z,43.09
2022-12-25T02:05:23.116Z,43.12
2022-12-25T02:07:58.848Z,43.04
2022-12-25T02:10:29.396Z,43.15
2022-12-25T02:13:03.564Z,43.08
2022-12-25T02:15:41.236Z,43.09
2022-12-25T02:18:16.112Z,43.10
2022-12-25T02:21:01.824Z,43.05
2022-12-25T02:23:56.900Z,43.08
2022-12-25T02:26:42.873Z,43.14
2022-12-25T02:29:45.500Z,43.09
2022-12-25T02:32:19.549Z,43.07
2022-12-25T02:35:03.399Z,43.08
2022-12-25T02:37:49.479Z,43.12
2022-12-25T02:40:36.978Z,43.12
2022-12-25T02:43:09.620Z,43.12
2022-12-25T02:46:00.473Z,43.10
2022-12-25T02:48:34.536Z,43.19
2022-12-25T02:51:09.996Z,43.14
2022-12-25T02:53:45.829Z,43.15
2022-12-25T02:56:19.832Z,43.02
2022-12-25T02:58:51.534Z,43.04
2022-12-25T03:01:25.783Z,43.10
2022-12-25T03:03:57.778Z,43.16
2022-12-25T03:06:33.472Z,43.06
2022-12-25T03:09:12.645Z,43.12
2022-12-25T03:11:50.744Z,43.04
2022-12-25T03:14:24.015Z,43.06
2022-12-25T03:16:55.439Z,43.14
2022-12-25T03:19:35.981Z,43.05
2022-12-25T03:22:10.776Z,43.14
2022-12-25T03:24:41.881Z,43.00
2022-12-25T03:27:12.137Z,43.02
2022-12-25T03:29:42.217Z,43.06
2022-12-25T03:32:39.062Z,43.07
2022-12-25T03:35:21.016Z,43.11
2022-12-25T03:38:23.475Z,43.00
2022-12-25T03:41:01.656Z,43.05
2022-12-25T03:44:18.287Z,43.00
2022-12-25T03:47:03.693Z,43.02
2022-12-25T03:49:42.136Z,43.08
2022-12-25T03:52:15.264Z,42.99
2022-12-25T03:54:48.071Z,43.02
2022-12-25T03:57:15.868Z,43.04
2022-12-25T03:59:47.122Z,42.92
2022-12-25T04:02:15.165Z,42.96
2022-12-25T04:04:50.770Z,42.94
2022-12-25T04:07:18.609Z,42.98
2022-12-25T04:09:51.253Z,42.97
2022-12-25T04:12:21.647Z,42.95
2022-12-25T04:14:52.508Z,42.97
2022-12-25T04:17:25.693Z,43.01
2022-12-25T04:19:58.930Z,43.01
2022-12-25T04:22:29.388Z,42.92
2022-12-25T04:24:59.210Z,42.90
2022-12-25T04:27:33.033Z,42.91
2022-12-25T04:30:06.658Z,42.98
2022-12-25T04:32:40.438Z,42.95
2022-12-25T04:35:11.679Z,42.91
2022-12-25T04:37:41.929Z,42.98
2022-12-25T04:40:16.373Z,42.98
2022-12-25T04:42:46.618Z,42.98
2022-12-25T04:45:21.551Z,42.96
2022-12-25T04:47:49.323Z,43.00
2022-12-25T04:50:22.851Z,42.97
2022-12-25T04:52:50.260Z,42.97
2022-12-25T04:55:23.736Z,42.97
2022-12-25T04:57:51.067Z,42.97
2022-12-25T05:00:19.068Z,43.04
2022-12-25T05:02:46.932Z,43.06
2022-12-25T05:05:14.795Z,43.01
2022-12-25T05:07:45.135Z,43.06
2022-12-25T05:10:15.970Z,43.02
2022-12-25T05:12:46.982Z,43.04
2022-12-25T05:15:15.037Z,43.02
2022-12-25T05:17:46.455Z,43.14
2022-12-25T05:20:18.247Z,43.22
2022-12-25T05:22:49.207Z,43.22
2022-12-25T05:25:19.867Z,43.42
2022-12-25T05:27:53.850Z,43.44
2022-12-25T05:30:24.922Z,43.41
2022-12-25T05:32:57.768Z,43.61
2022-12-25T05:35:28.183Z,43.58
2022-12-25T05:37:55.659Z,43.58
2022-12-25T05:40:22.580Z,43.67
2022-12-25T05:42:49.737Z,43.74
2022-12-25T05:45:25.296Z,43.79
2022-12-25T05:48:00.114Z,43.85
2022-12-25T05:50:30.229Z,43.91
2022-12-25T05:53:07.728Z,44.04
2022-12-25T05:55:40.190Z,44.19
2022-12-25T05:58:12.147Z,44.23
2022-12-25T06:00:43.850Z,44.38
2022-12-25T06:03:13.744Z,44.28
2022-12-25T06:05:46.609Z,44.13
2022-12-25T06:08:16.496Z,44.28
2022-12-25T06:10:43.465Z,44.23
2022-12-25T06:13:16.714Z,44.37
2022-12-25T06:15:43.599Z,44.55
2022-12-25T06:18:13.679Z,44.46
2022-12-25T06:20:44.328Z,44.40
2022-12-25T06:23:11.285Z,44.31
2022-12-25T06:25:47.899Z,44.28
2022-12-25T06:28:20.263Z,44.27
2022-12-25T06:30:50.758Z,44.07
2022-12-25T06:33:20.560Z,44.19
2022-12-25T06:35:47.906Z,44.39
2022-12-25T06:38:14.889Z,44.28
2022-12-25T06:40:41.720Z,44.29
2022-12-25T06:43:14.228Z,44.27
2022-12-25T06:45:44.211Z,44.09
2022-12-25T06:48:11.052Z,44.38
2022-12-25T06:50:44.804Z,44.37
2022-12-25T06:53:17.833Z,43.79
2022-12-25T06:55:49.838Z,43.87
2022-12-25T06:58:20.140Z,44.10
2022-12-25T07:00:50.612Z,44.14
2022-12-25T07:03:30.257Z,44.49
2022-12-25T07:06:06.321Z,44.80
2022-12-25T07:08:36.280Z,44.97
2022-12-25T07:11:06.413Z,44.80
2022-12-25T07:13:41.662Z,44.63
2022-12-25T07:16:14.937Z,44.47
2022-12-25T07:18:51.829Z,44.39
2022-12-25T07:21:20.874Z,44.27
2022-12-25T07:23:54.152Z,44.24
2022-12-25T07:26:21.073Z,44.19
2022-12-25T07:28:55.700Z,44.18
2022-12-25T07:31:25.173Z,44.05
2022-12-25T07:33:55.246Z,43.94
2022-12-25T07:36:26.218Z,43.71
2022-12-25T07:38:56.508Z,43.79
2022-12-25T07:41:30.434Z,44.00
2022-12-25T07:44:03.531Z,44.18
2022-12-25T07:46:35.157Z,44.01
2022-12-25T07:49:07.753Z,44.04
2022-12-25T07:51:37.481Z,44.21
2022-12-25T07:54:04.683Z,46.03
2022-12-25T07:56:35.018Z,44.95
2022-12-25T07:59:08.758Z,44.67
2022-12-25T08:01:36.592Z,44.55
2022-12-25T08:04:07.299Z,44.59
2022-12-25T08:06:35.755Z,45.67
2022-12-25T08:09:12.203Z,45.74
2022-12-25T08:11:40.845Z,45.38
2022-12-25T08:14:09.656Z,45.37
2022-12-25T08:16:44.687Z,45.76
2022-12-25T08:19:15.055Z,46.09
2022-12-25T08:21:42.485Z,45.80
2022-12-25T08:24:14.859Z,45.41
2022-12-25T08:26:46.943Z,44.94
2022-12-25T08:29:20.442Z,45.09
2022-12-25T08:31:50.949Z,45.20
2022-12-25T08:34:25.288Z,45.17
2022-12-25T08:36:58.973Z,45.22
2022-12-25T08:39:27.054Z,45.17
2022-12-25T08:42:00.716Z,45.25
2022-12-25T08:44:30.491Z,45.13
2022-12-25T08:47:04.149Z,44.97
2022-12-25T08:49:36.801Z,45.03
2022-12-25T08:52:09.198Z,45.00
2022-12-25T08:54:41.301Z,45.00
2022-12-25T08:57:14.697Z,44.92
2022-12-25T08:59:50.659Z,44.89
2022-12-25T09:02:24.194Z,44.80
2022-12-25T09:04:59.912Z,44.79
2022-12-25T09:07:29.463Z,44.77
2022-12-25T09:10:02.282Z,44.79
2022-12-25T09:12:29.184Z,44.74
2022-12-25T09:14:56.174Z,44.67
2022-12-25T09:17:26.664Z,44.72
2022-12-25T09:20:00.184Z,44.57
2022-12-25T09:22:34.271Z,44.61
2022-12-25T09:25:07.397Z,44.57
2022-12-25T09:27:37.075Z,44.55
2022-12-25T09:30:12.962Z,44.52
2022-12-25T09:32:40.057Z,44.57
2022-12-25T09:35:13.946Z,44.58
2022-12-25T09:37:47.304Z,44.47
2022-12-25T09:40:19.043Z,44.47
2022-12-25T09:42:49.691Z,44.44
2022-12-25T09:45:39.035Z,44.40
2022-12-25T09:48:06.420Z,44.43
2022-12-25T09:50:50.530Z,44.42
2022-12-25T09:53:26.291Z,44.41
2022-12-25T09:56:05.214Z,44.25
2022-12-25T09:58:34.856Z,44.26
2022-12-25T10:01:33.180Z,44.21
2022-12-25T10:04:31.918Z,44.19
2022-12-25T10:07:46.228Z,44.16
2022-12-25T10:10:43.594Z,44.16
2022-12-25T10:13:37.862Z,44.13
2022-12-25T10:16:31.870Z,44.11
2022-12-25T10:19:16.911Z,44.09
2022-12-25T10:21:49.489Z,44.16
2022-12-25T10:24:26.894Z,44.02
2022-12-25T10:26:59.673Z,44.01
2022-12-25T10:29:35.217Z,44.05
2022-12-25T10:32:11.168Z,43.99
2022-12-25T10:34:41.344Z,44.01
2022-12-25T10:37:12.432Z,43.99
2022-12-25T10:39:46.000Z,44.00
2022-12-25T10:42:34.137Z,44.00
2022-12-25T10:45:04.707Z,44.03
2022-12-25T10:47:39.012Z,44.06
2022-12-25T10:50:26.487Z,44.13
2022-12-25T10:53:17.892Z,44.09
2022-12-25T10:55:57.638Z,44.07
2022-12-25T10:58:30.887Z,44.09
2022-12-25T11:01:05.579Z,44.01
2022-12-25T11:03:41.686Z,44.02
2022-12-25T11:06:26.603Z,44.01
2022-12-25T11:09:01.081Z,43.99
2022-12-25T11:11:35.157Z,43.97
2022-12-25T11:14:16.252Z,43.97
2022-12-25T11:16:49.944Z,43.97
2022-12-25T11:19:35.450Z,43.99
2022-12-25T11:22:20.313Z,43.97
2022-12-25T11:24:53.114Z,43.92
2022-12-25T11:27:28.771Z,43.99
2022-12-25T11:30:04.380Z,43.93
2022-12-25T11:32:36.446Z,43.93
2022-12-25T11:35:15.331Z,43.91
2022-12-25T11:37:47.801Z,43.87
2022-12-25T11:40:40.941Z,43.86
2022-12-25T11:43:19.640Z,43.86
2022-12-25T11:45:56.550Z,43.87
2022-12-25T11:48:23.467Z,43.83
2022-12-25T11:50:55.524Z,44.03
2022-12-25T11:53:36.997Z,43.87
2022-12-25T11:56:15.031Z,43.81
2022-12-25T11:59:01.871Z,43.81
2022-12-25T12:01:53.047Z,43.80
2022-12-25T12:04:43.886Z,43.78
2022-12-25T12:07:25.802Z,43.78
2022-12-25T12:10:05.109Z,43.77
2022-12-25T12:12:49.142Z,43.78
2022-12-25T12:15:35.780Z,43.81
2022-12-25T12:18:31.353Z,43.80
2022-12-25T12:21:10.801Z,43.85
2022-12-25T12:24:03.737Z,43.81
2022-12-25T12:26:39.011Z,43.84
2022-12-25T12:29:27.318Z,43.84
2022-12-25T12:32:19.844Z,43.80
2022-12-25T12:34:48.780Z,43.84
2022-12-25T12:37:36.260Z,43.86
2022-12-25T12:40:08.994Z,43.80
2022-12-25T12:42:46.060Z,43.78
2022-12-25T12:45:32.707Z,43.82
2022-12-25T12:48:14.210Z,43.82
2022-12-25T12:50:45.369Z,43.89
2022-12-25T12:53:26.716Z,44.04
2022-12-25T12:55:57.353Z,44.23
2022-12-25T12:58:36.405Z,44.28
2022-12-25T13:01:28.338Z,44.42
2022-12-25T13:04:30.445Z,44.45
2022-12-25T13:07:25.409Z,44.39
2022-12-25T13:10:05.386Z,44.31
2022-12-25T13:12:39.080Z,44.24
2022-12-25T13:15:26.636Z,44.27
2022-12-25T13:18:02.438Z,44.18
2022-12-25T13:20:57.629Z,44.01
2022-12-25T13:23:36.533Z,43.96
2022-12-25T13:26:17.676Z,44.02
2022-12-25T13:28:48.227Z,43.77
2022-12-25T13:31:31.617Z,43.84
2022-12-25T13:34:09.084Z,43.73
2022-12-25T13:36:40.416Z,43.87
2022-12-25T13:39:11.822Z,42.76
2022-12-25T13:41:50.919Z,43.04
2022-12-25T13:44:27.485Z,42.97
2022-12-25T13:47:28.903Z,42.87
2022-12-25T13:50:02.544Z,42.78
2022-12-25T13:52:40.233Z,41.84
2022-12-25T13:55:29.124Z,42.49
2022-12-25T14:00:49.631Z,42.38
2022-12-25T14:03:29.069Z,42.52
2022-12-25T14:06:16.682Z,42.44
2022-12-25T14:08:45.575Z,42.38
2022-12-25T14:11:16.621Z,42.21
2022-12-25T14:13:47.742Z,42.22
2022-12-25T14:16:21.567Z,42.08
2022-12-25T14:19:00.875Z,42.13
2022-12-25T14:21:36.698Z,42.25
2022-12-25T14:24:05.391Z,42.11
2022-12-25T14:26:34.567Z,42.10
2022-12-25T14:29:15.772Z,42.09
2022-12-25T14:31:49.882Z,41.99
2022-12-25T14:34:26.426Z,42.28
2022-12-25T14:36:54.497Z,42.14
2022-12-25T14:39:31.862Z,42.10
2022-12-25T14:42:21.766Z,42.16
2022-12-25T14:45:26.686Z,42.13
2022-12-25T14:47:59.073Z,42.17
2022-12-25T14:50:39.543Z,42.19
2022-12-25T14:53:18.532Z,42.23
2022-12-25T14:55:57.535Z,42.26
2022-12-25T14:58:28.549Z,42.28
2022-12-25T15:00:58.694Z,42.37
2022-12-25T15:03:37.957Z,42.51
2022-12-25T15:06:28.543Z,42.58
2022-12-25T15:09:16.509Z,43.03
2022-12-25T15:11:56.562Z,43.32
2022-12-25T15:14:27.764Z,43.67
2022-12-25T15:17:01.263Z,43.63
2022-12-25T15:19:38.417Z,43.75
2022-12-25T15:22:14.270Z,43.79
2022-12-25T15:24:47.775Z,43.84
2022-12-25T15:27:19.973Z,43.91
2022-12-25T15:32:35.290Z,44.08
2022-12-25T15:35:08.561Z,44.13
2022-12-25T15:37:35.582Z,44.21
2022-12-25T15:40:06.721Z,44.30
2022-12-25T15:42:39.529Z,44.37
2022-12-25T15:45:15.486Z,44.35
2022-12-25T15:47:42.421Z,44.31
2022-12-25T15:50:15.945Z,44.30
2022-12-25T15:52:43.552Z,44.33
2022-12-25T15:55:10.684Z,44.43
2022-12-25T15:57:45.389Z,44.44
2022-12-25T16:00:18.863Z,44.41
2022-12-25T16:02:49.820Z,44.52
2022-12-25T16:05:19.876Z,44.43
2022-12-25T16:07:46.931Z,44.54
2022-12-25T16:10:17.752Z,44.45
2022-12-25T16:12:45.763Z,44.57
2022-12-25T16:15:14.809Z,44.46
2022-12-25T16:17:45.073Z,44.47
2022-12-25T16:20:18.153Z,44.56
2022-12-25T16:22:46.347Z,44.51
2022-12-25T16:25:19.373Z,44.49
2022-12-25T16:27:46.386Z,44.46
2022-12-25T16:30:18.698Z,44.47
2022-12-25T16:32:51.880Z,44.46
2022-12-25T16:35:21.968Z,44.50
2022-12-25T16:37:49.036Z,44.51
2022-12-25T16:40:16.088Z,44.47
2022-12-25T16:42:46.103Z,44.51
2022-12-25T16:45:13.290Z,44.51
2022-12-25T16:47:40.193Z,44.53
2022-12-25T16:50:10.407Z,44.71
2022-12-25T16:52:37.316Z,44.66
2022-12-25T16:55:04.970Z,44.61
2022-12-25T16:57:34.890Z,44.54
2022-12-25T17:00:04.546Z,43.83
2022-12-25T17:02:31.481Z,43.97
2022-12-25T17:05:01.192Z,44.35
2022-12-25T17:07:27.960Z,44.52
2022-12-25T17:09:54.905Z,44.31
2022-12-25T17:12:24.567Z,44.28
2022-12-25T17:14:54.916Z,44.46
2022-12-25T17:17:24.609Z,44.47
2022-12-25T17:19:51.528Z,44.29
2022-12-25T17:22:18.468Z,44.34
2022-12-25T17:24:45.741Z,44.30
2022-12-25T17:27:12.703Z,44.23
2022-12-25T17:29:42.671Z,44.21
2022-12-25T17:32:13.569Z,44.25
2022-12-25T17:34:40.452Z,44.17
2022-12-25T17:37:10.821Z,43.91
2022-12-25T17:39:37.573Z,43.96
2022-12-25T17:42:07.716Z,43.96
2022-12-25T17:44:34.688Z,44.07
2022-12-25T17:47:04.140Z,44.18
2022-12-25T17:49:31.007Z,44.22
2022-12-25T17:52:01.206Z,44.44
2022-12-25T17:54:34.273Z,44.48
2022-12-25T17:57:02.986Z,44.49
2022-12-25T17:59:29.759Z,44.31
2022-12-25T18:01:59.272Z,44.28
2022-12-25T18:04:28.682Z,44.24
2022-12-25T18:06:55.496Z,44.17
2022-12-25T18:09:28.975Z,44.26
2022-12-25T18:11:59.441Z,44.61
2022-12-25T18:14:28.054Z,44.61
2022-12-25T18:16:54.915Z,44.68
2022-12-25T18:19:21.694Z,44.79
2022-12-25T18:21:54.694Z,44.80
2022-12-25T18:24:21.333Z,44.78
2022-12-25T18:26:48.143Z,44.64
2022-12-25T18:29:15.011Z,44.78
2022-12-25T18:31:44.525Z,44.95
2022-12-25T18:34:11.571Z,44.81
2022-12-25T18:36:44.254Z,44.78
2022-12-25T18:39:15.518Z,44.70
2022-12-25T18:41:42.327Z,44.57
2022-12-25T18:44:09.468Z,44.54
2022-12-25T18:46:36.334Z,44.48
2022-12-25T18:49:03.141Z,44.39
2022-12-25T18:51:36.857Z,44.34
2022-12-25T18:54:07.177Z,44.29
2022-12-25T18:56:38.020Z,44.28
2022-12-25T18:59:04.811Z,44.23
2022-12-25T19:01:34.928Z,44.16
2022-12-25T19:04:05.710Z,44.17
2022-12-25T19:06:32.985Z,43.87
2022-12-25T19:08:59.832Z,43.91
2022-12-25T19:11:26.900Z,44.03
2022-12-25T19:13:53.653Z,44.06
2022-12-25T19:16:23.281Z,44.04
2022-12-25T19:18:53.067Z,44.06
2022-12-25T19:21:23.234Z,44.09
2022-12-25T19:23:53.342Z,44.20
2022-12-25T19:26:23.535Z,44.19
2022-12-25T19:28:56.297Z,44.24
2022-12-25T19:31:26.064Z,44.36
2022-12-25T19:33:56.148Z,44.41
2022-12-25T19:36:25.952Z,44.67
2022-12-25T19:38:58.432Z,44.70
2022-12-25T19:41:25.489Z,44.69
2022-12-25T19:43:52.719Z,44.64
2022-12-25T19:46:27.502Z,44.45
2022-12-25T19:48:58.458Z,44.42
2022-12-25T19:51:28.921Z,44.27
2022-12-25T19:53:59.400Z,44.08
2022-12-25T19:56:30.210Z,44.04
2022-12-25T19:59:06.503Z,43.90
2022-12-25T20:01:36.461Z,44.00
2022-12-25T20:04:03.714Z,43.80
2022-12-25T20:06:35.379Z,43.75
2022-12-25T20:09:05.306Z,43.80
2022-12-25T20:11:33.747Z,43.63
2022-12-25T20:14:01.663Z,43.59
2022-12-25T20:16:28.560Z,43.59
2022-12-25T20:18:58.893Z,43.52
2022-12-25T20:21:26.375Z,43.52
2022-12-25T20:23:54.289Z,43.58
2022-12-25T20:26:24.515Z,43.38
2022-12-25T20:28:51.667Z,43.37
2022-12-25T20:31:25.937Z,43.39
2022-12-25T20:33:53.463Z,43.37
2022-12-25T20:36:20.377Z,43.69
2022-12-25T20:38:50.373Z,43.31
2022-12-25T20:41:28.735Z,43.17
2022-12-25T20:43:56.932Z,43.42
2022-12-25T20:46:24.632Z,42.80
2022-12-25T20:48:51.966Z,42.77
2022-12-25T20:51:25.215Z,42.82
2022-12-25T20:53:55.737Z,42.82
2022-12-25T20:56:27.241Z,42.85
2022-12-25T20:59:00.925Z,42.85
2022-12-25T21:01:30.235Z,43.00
2022-12-25T21:04:01.171Z,43.07
2022-12-25T21:06:28.371Z,42.96
2022-12-25T21:08:55.891Z,43.01
2022-12-25T21:11:23.427Z,42.94
2022-12-25T21:13:50.526Z,42.92
2022-12-25T21:16:21.605Z,43.04
2022-12-25T21:18:53.748Z,43.02
2022-12-25T21:21:22.166Z,43.10
2022-12-25T21:23:55.282Z,43.07
2022-12-25T21:26:24.214Z,43.13
2022-12-25T21:28:57.387Z,43.16
2022-12-25T21:31:25.223Z,43.11
2022-12-25T21:33:53.201Z,43.25
2022-12-25T21:36:23.498Z,43.18
2022-12-25T21:39:02.573Z,43.21
2022-12-25T21:41:37.267Z,43.30
2022-12-25T21:44:08.187Z,43.26
2022-12-25T21:46:38.761Z,43.33
2022-12-25T21:49:06.828Z,43.43
2022-12-25T21:51:36.736Z,43.35
2022-12-25T21:54:08.827Z,43.41
2022-12-25T21:56:43.481Z,43.36
2022-12-25T21:59:13.832Z,43.38
2022-12-25T22:01:41.370Z,43.44
2022-12-25T22:04:14.238Z,43.44
2022-12-25T22:06:44.789Z,43.49
2022-12-25T22:09:14.995Z,43.49
2022-12-25T22:11:44.896Z,43.50
2022-12-25T22:14:50.474Z,43.61
2022-12-25T22:17:09.358Z,43.61
2022-12-25T22:19:36.194Z,43.67
2022-12-25T22:22:03.147Z,43.59
2022-12-25T22:24:30.342Z,43.75
2022-12-25T22:26:57.524Z,43.67
2022-12-25T22:29:31.271Z,43.63
2022-12-25T22:31:58.807Z,43.76
2022-12-25T22:34:29.013Z,43.77
2022-12-25T22:36:57.317Z,43.75
2022-12-25T22:39:25.153Z,43.73
2022-12-25T22:41:58.032Z,43.76
2022-12-25T22:44:27.072Z,43.77
2022-12-25T22:46:57.613Z,43.73
2022-12-25T22:49:25.276Z,43.77
2022-12-25T22:51:53.455Z,43.82
2022-12-25T22:54:22.079Z,43.91
2022-12-25T22:56:53.521Z,43.85
2022-12-25T22:59:23.140Z,43.90
2022-12-25T23:01:50.976Z,43.88
2022-12-25T23:04:18.129Z,43.87
2022-12-25T23:06:45.379Z,43.91
2022-12-25T23:09:19.004Z,43.92
2022-12-25T23:11:50.952Z,43.98
2022-12-25T23:14:17.764Z,43.91
2022-12-25T23:16:44.637Z,43.87
2022-12-25T23:19:13.326Z,43.82
2022-12-25T23:21:40.857Z,43.79
2022-12-25T23:24:10.045Z,43.73
2022-12-25T23:26:37.328Z,43.74
2022-12-25T23:29:06.659Z,43.72
2022-12-25T23:31:38.051Z,43.69
2022-12-25T23:34:05.916Z,43.63
2022-12-25T23:36:39.301Z,43.63
2022-12-25T23:39:10.626Z,43.65
2022-12-25T23:41:45.319Z,43.61
2022-12-25T23:44:15.383Z,43.61
2022-12-25T23:46:52.646Z,43.63
2022-12-25T23:49:21.074Z,43.60
2022-12-25T23:51:47.839Z,43.54
2022-12-25T23:54:22.042Z,43.61
2022-12-25T23:56:49.780Z,43.68
2022-12-25T23:59:17.263Z,43.52
